Time;durP1;ratioP1;P1;durP2;ratioP2;P2;SDS_P1;SDS_P2;PMS_P1;PMS_P2;Temp;Humidity;BMP_temperature;BMP_pressure;BME280_temperature;BME280_humidity;BME280_pressure;Samples;Min_cycle;Max_cycle;Signal;HPM_P1;HPM_P2
2023/06/09 00:00:07;;;;;;;6.00;5.50;;;;;;;19.46;62.61;100881.00;6303994;22;20033;-80
2023/06/09 00:02:33;;;;;;;5.35;4.95;;;;;;;19.45;62.71;100888.09;6300323;22;20019;-84
2023/06/09 00:05:00;;;;;;;6.00;5.53;;;;;;;19.45;62.94;100882.78;6299159;22;20043;-79
2023/06/09 00:07:27;;;;;;;6.50;6.00;;;;;;;19.43;63.70;100881.97;6274442;22;20419;-82
2023/06/09 00:09:54;;;;;;;6.72;6.05;;;;;;;19.46;63.18;100886.28;6299561;22;20422;-83
2023/06/09 00:12:20;;;;;;;6.38;5.78;;;;;;;19.48;62.85;100880.00;6297899;22;20517;-82
2023/06/09 00:14:46;;;;;;;5.07;4.68;;;;;;;19.49;63.06;100878.22;6298273;22;20053;-78
2023/06/09 00:17:13;;;;;;;6.82;6.13;;;;;;;19.50;63.19;100880.81;6300604;22;20027;-81
2023/06/09 00:19:41;;;;;;;6.72;5.97;;;;;;;19.48;63.57;100880.00;6299121;22;20499;-86
2023/06/09 00:22:13;;;;;;;6.55;6.03;;;;;;;19.48;63.58;100879.16;6271479;22;20026;-79
2023/06/09 00:24:40;;;;;;;6.07;5.57;;;;;;;19.46;63.93;100883.66;6271629;22;20050;-78
2023/06/09 00:27:10;;;;;;;6.70;6.00;;;;;;;19.44;64.12;100878.41;6297682;22;20015;-80
2023/06/09 00:29:36;;;;;;;10.27;6.40;;;;;;;19.44;64.17;100869.59;6298236;22;20075;-84
2023/06/09 00:32:05;;;;;;;6.65;6.05;;;;;;;19.42;64.28;100874.94;6271212;22;20763;-81
2023/06/09 00:34:32;;;;;;;8.27;6.38;;;;;;;19.40;64.94;100873.28;6270322;22;20015;-88
2023/06/09 00:36:58;;;;;;;5.55;5.15;;;;;;;19.37;64.91;100871.63;6298147;22;20019;-79
2023/06/09 00:39:24;;;;;;;6.03;5.53;;;;;;;19.35;64.75;100873.50;6294309;22;20016;-80
2023/06/09 00:41:51;;;;;;;5.63;5.13;;;;;;;19.34;64.65;100880.56;6271060;22;20349;-82
2023/06/09 00:44:17;;;;;;;6.00;5.55;;;;;;;19.32;65.24;100876.25;6295557;22;20015;-87
2023/06/09 00:46:44;;;;;;;4.93;4.53;;;;;;;19.32;64.68;100865.63;6272323;22;20145;-80
2023/06/09 00:49:10;;;;;;;7.53;5.40;;;;;;;19.31;64.95;100878.06;6296237;22;20508;-80
2023/06/09 00:51:38;;;;;;;6.88;5.57;;;;;;;19.31;65.04;100869.25;6296188;22;20374;-79
2023/06/09 00:54:05;;;;;;;6.38;5.78;;;;;;;19.30;65.12;100872.81;6296725;22;20015;-91
2023/06/09 00:56:33;;;;;;;9.75;6.07;;;;;;;19.29;65.46;100871.94;6296416;22;20099;-91
2023/06/09 00:59:00;;;;;;;5.93;5.43;;;;;;;19.28;65.47;100870.22;6299664;22;20026;-79
2023/06/09 01:01:28;;;;;;;6.88;5.68;;;;;;;19.28;65.42;100867.56;6295861;22;20014;-81
2023/06/09 01:03:55;;;;;;;6.43;5.82;;;;;;;19.28;65.28;100872.88;6292497;22;20110;-87
2023/06/09 01:07:07;;;;;;;8.30;6.70;;;;;;;19.28;66.17;100872.88;6322627;22;20019;-84
2023/06/09 01:09:43;;;;;;;6.97;6.38;;;;;;;19.27;66.50;100878.25;6297756;22;20042;-82
2023/06/09 01:12:41;;;;;;;7.43;6.55;;;;;;;19.24;66.43;100875.72;6296044;22;20167;-79
2023/06/09 01:15:19;;;;;;;7.93;6.18;;;;;;;19.23;66.83;100872.22;6296241;22;20362;-78
2023/06/09 01:17:55;;;;;;;6.40;5.90;;;;;;;19.23;66.62;100872.22;6299682;22;20019;-79
2023/06/09 01:20:45;;;;;;;7.50;6.55;;;;;;;19.21;66.92;100870.56;6293519;22;20084;-85
2023/06/09 01:23:35;;;;;;;5.93;5.43;;;;;;;19.20;67.02;100863.50;6291464;22;20019;-80
2023/06/09 01:26:02;;;;;;;6.07;5.57;;;;;;;19.17;66.99;100868.00;6267216;22;20614;-78
2023/06/09 01:28:30;;;;;;;8.23;5.88;;;;;;;19.15;67.05;100866.34;6298319;22;20015;-85
2023/06/09 01:30:58;;;;;;;6.32;5.75;;;;;;;19.14;67.25;100867.28;6298360;22;20020;-78
2023/06/09 01:33:29;;;;;;;7.88;7.07;;;;;;;19.12;67.54;100862.03;6297585;22;20022;-79
2023/06/09 01:35:56;;;;;;;8.15;7.40;;;;;;;19.11;67.40;100873.59;6299408;22;20018;-82
2023/06/09 01:38:26;;;;;;;7.72;6.78;;;;;;;19.11;67.49;100865.63;6297877;22;20067;-80
2023/06/09 01:40:54;;;;;;;6.10;5.60;;;;;;;19.09;67.78;100862.16;6294946;22;20501;-80
2023/06/09 01:43:21;;;;;;;7.43;6.57;;;;;;;19.09;68.03;100866.63;6273745;22;20025;-82
2023/06/09 01:45:47;;;;;;;6.53;5.82;;;;;;;19.06;68.48;100858.75;6273801;22;20019;-85
2023/06/09 01:48:42;;;;;;;7.43;6.65;;;;;;;19.03;69.05;100854.44;6304109;22;20025;-87
2023/06/09 01:51:30;;;;;;;7.25;6.28;;;;;;;19.00;69.29;100871.34;6272534;22;20022;-80
2023/06/09 01:54:10;;;;;;;7.70;6.97;;;;;;;18.99;69.42;100871.41;6274687;22;20021;-86
2023/06/09 01:56:55;;;;;;;13.43;7.28;;;;;;;18.98;69.66;100861.72;6273303;22;20021;-79
2023/06/09 01:59:27;;;;;;;7.75;6.95;;;;;;;18.96;70.07;100866.25;6248134;22;20023;-91
2023/06/09 02:01:59;;;;;;;8.63;7.82;;;;;;;18.94;70.19;100866.31;6254974;22;20107;-81
2023/06/09 02:04:28;;;;;;;7.38;6.78;;;;;;;18.91;71.18;100858.47;6295096;22;20455;-82
2023/06/09 02:06:55;;;;;;;8.65;7.10;;;;;;;18.88;70.87;100857.69;6325269;22;20041;-83
2023/06/09 02:09:22;;;;;;;8.55;7.82;;;;;;;18.83;72.00;100858.75;6298343;22;20450;-82
2023/06/09 02:11:53;;;;;;;8.48;7.57;;;;;;;18.82;71.60;100856.16;6283057;22;20024;-85
2023/06/09 02:14:19;;;;;;;9.32;8.32;;;;;;;18.81;72.15;100862.38;6239340;22;20396;-84
2023/06/09 02:16:53;;;;;;;7.93;7.22;;;;;;;18.78;72.00;100854.56;6241201;22;20110;-79
2023/06/09 02:19:19;;;;;;;;;;;;;;;18.78;72.99;100854.56;6242549;22;20089;-85
2023/06/09 02:21:46;;;;;;;7.13;6.53;;;;;;;18.75;72.04;100860.84;6214757;22;19915;-83
2023/06/09 02:24:12;;;;;;;8.52;7.60;;;;;;;18.75;72.70;100870.59;6238301;22;20023;-81
2023/06/09 02:26:39;;;;;;;8.23;7.53;;;;;;;18.73;72.92;100861.84;6265212;22;20031;-80
2023/06/09 02:29:05;;;;;;;7.90;7.10;;;;;;;18.72;72.82;100860.97;6237076;22;20458;-90
2023/06/09 02:31:32;;;;;;;8.77;8.02;;;;;;;18.69;73.41;100863.75;6236705;22;20019;-80
2023/06/09 02:33:58;;;;;;;9.57;8.70;;;;;;;18.65;73.77;100860.34;6239779;22;20370;-88
2023/06/09 02:36:26;;;;;;;9.77;8.88;;;;;;;18.64;74.18;100871.88;6240710;22;20449;-87
2023/06/09 02:38:53;;;;;;;9.20;8.30;;;;;;;18.62;74.05;100865.78;6242316;22;20011;-79
2023/06/09 02:41:20;;;;;;;8.60;7.90;;;;;;;18.59;74.59;100857.94;6236075;22;20087;-80
2023/06/09 02:43:46;;;;;;;8.82;8.02;;;;;;;18.58;74.42;100855.38;6241569;22;20075;-82
2023/06/09 02:46:13;;;;;;;8.93;8.23;;;;;;;18.57;74.59;100862.44;6240512;22;20023;-88
2023/06/09 02:48:40;;;;;;;8.45;7.63;;;;;;;18.57;74.81;100866.88;6241389;22;20019;-83
2023/06/09 02:51:06;;;;;;;8.90;8.05;;;;;;;18.57;74.80;100862.44;6241638;22;20024;-85
2023/06/09 02:53:33;;;;;;;9.38;8.48;;;;;;;18.55;74.60;100869.59;6237165;22;20061;-79
2023/06/09 02:55:59;;;;;;;11.95;9.65;;;;;;;18.54;74.98;100872.28;6238608;22;20079;-83
2023/06/09 02:58:26;;;;;;;9.43;8.18;;;;;;;18.52;75.07;100872.34;6240527;22;20015;-83
2023/06/09 03:00:53;;;;;;;10.25;9.32;;;;;;;18.51;74.99;100870.63;6215578;22;20015;-80
2023/06/09 03:03:19;;;;;;;9.88;8.40;;;;;;;18.50;75.28;100877.72;6241237;22;20498;-85
2023/06/09 03:05:47;;;;;;;8.93;8.02;;;;;;;18.49;75.49;100877.78;6235795;22;20020;-91
2023/06/09 03:08:13;;;;;;;8.55;7.85;;;;;;;18.46;75.67;100876.13;6214281;22;20056;-82
2023/06/09 03:10:40;;;;;;;10.68;9.48;;;;;;;18.44;76.30;100877.09;6216173;22;20020;-80
2023/06/09 03:13:06;;;;;;;9.60;8.63;;;;;;;18.44;76.08;100879.75;6243782;22;20435;-83
2023/06/09 03:15:33;;;;;;;12.13;8.63;;;;;;;18.42;76.32;100879.81;6252354;22;20027;-87
2023/06/09 03:17:59;;;;;;;9.05;8.18;;;;;;;18.42;75.86;100884.22;6253054;22;20019;-85
2023/06/09 03:20:26;;;;;;;8.40;7.57;;;;;;;18.41;75.59;100888.69;6278571;22;20423;-88
2023/06/09 03:22:54;;;;;;;9.60;8.65;;;;;;;18.41;75.86;100882.50;6282613;22;20027;-83
2023/06/09 03:25:21;;;;;;;8.35;7.63;;;;;;;18.40;75.52;100889.59;6255256;22;20042;-85
2023/06/09 03:27:47;;;;;;;9.00;8.23;;;;;;;18.39;75.75;100887.00;6280039;22;20088;-85
2023/06/09 03:30:14;;;;;;;8.57;7.88;;;;;;;18.36;75.37;100887.97;6250360;22;20080;-81
2023/06/09 03:32:40;;;;;;;9.20;8.40;;;;;;;18.36;75.19;100893.28;6219330;22;20027;-83
2023/06/09 03:35:07;;;;;;;10.00;8.70;;;;;;;18.37;75.12;100902.09;6243712;22;20016;-80
2023/06/09 03:37:33;;;;;;;10.48;9.40;;;;;;;18.36;75.24;100895.94;6244878;22;20028;-79
2023/06/09 03:40:00;;;;;;;10.73;9.68;;;;;;;18.37;74.89;100900.31;6246049;22;20020;-82
2023/06/09 03:42:26;;;;;;;11.05;8.43;;;;;;;18.38;74.43;100898.53;6242629;22;20015;-86
2023/06/09 03:44:57;;;;;;;9.82;7.95;;;;;;;18.37;74.74;100902.09;6239032;22;20128;-83
2023/06/09 03:47:24;;;;;;;9.43;8.52;;;;;;;18.37;75.20;100902.09;6240168;22;20019;-78
2023/06/09 03:49:50;;;;;;;10.63;8.95;;;;;;;18.37;75.06;100908.28;6242239;22;20080;-83
2023/06/09 03:52:17;;;;;;;10.45;9.05;;;;;;;18.35;75.73;100903.03;6241124;22;20024;-83
2023/06/09 03:54:44;;;;;;;9.27;8.30;;;;;;;18.33;75.11;100901.38;6239345;22;20077;-81
2023/06/09 03:57:10;;;;;;;9.60;8.70;;;;;;;18.30;75.20;100910.28;6240423;22;20050;-82
2023/06/09 03:59:37;;;;;;;10.80;9.68;;;;;;;18.28;75.29;100898.03;6241760;22;20024;-81
2023/06/09 04:02:04;;;;;;;11.15;10.13;;;;;;;18.30;74.87;100905.00;6237133;22;20020;-80
2023/06/09 04:04:30;;;;;;;10.35;9.30;;;;;;;18.30;75.07;100907.63;6243821;22;20088;-84
2023/06/09 04:06:58;;;;;;;8.52;7.72;;;;;;;18.33;75.07;100910.16;6242123;22;20012;-79
2023/06/09 04:09:26;;;;;;;11.05;9.82;;;;;;;18.32;75.08;100900.47;6246101;22;20517;-80
2023/06/09 04:11:53;;;;;;;9.95;8.57;;;;;;;18.34;74.63;100908.38;6243023;22;20457;-85
2023/06/09 04:14:19;;;;;;;9.73;8.88;;;;;;;18.35;74.33;100907.44;6244072;22;20561;-78
2023/06/09 04:16:46;;;;;;;9.20;8.48;;;;;;;18.34;73.63;100898.66;6241519;22;20065;-78
2023/06/09 04:19:13;;;;;;;8.52;7.70;;;;;;;18.36;73.47;100906.53;6240064;22;20031;-78
2023/06/09 04:21:40;;;;;;;11.75;8.82;;;;;;;18.36;72.94;100901.25;6239447;22;20023;-90
2023/06/09 04:24:08;;;;;;;9.07;7.47;;;;;;;18.37;72.45;100900.31;6240498;22;20069;-85
2023/06/09 04:26:37;;;;;;;11.13;8.48;;;;;;;18.40;72.16;100904.66;6269334;22;20031;-82
2023/06/09 04:29:04;;;;;;;8.73;7.68;;;;;;;18.43;71.76;100899.22;6244987;22;20035;-80
2023/06/09 04:31:33;;;;;;;7.93;7.00;;;;;;;18.43;71.25;100900.06;6242828;22;20518;-90
2023/06/09 04:34:09;;;;;;;7.28;6.60;;;;;;;18.43;70.67;100897.41;6244627;22;20035;-78
2023/06/09 04:36:36;;;;;;;8.75;7.93;;;;;;;18.45;70.05;100900.88;6218717;22;20047;-80
2023/06/09 04:39:03;;;;;;;8.35;7.57;;;;;;;18.47;69.99;100899.06;6241327;22;20047;-80
2023/06/09 04:41:32;;;;;;;8.80;7.88;;;;;;;18.45;69.51;100898.22;6239691;22;20020;-88
2023/06/09 04:44:03;;;;;;;9.10;8.20;;;;;;;18.47;69.96;100901.72;6243187;22;20024;-81
2023/06/09 04:46:37;;;;;;;9.13;8.32;;;;;;;18.51;69.75;100902.44;6241884;22;20016;-80
2023/06/09 04:49:08;;;;;;;9.02;8.18;;;;;;;18.52;69.35;100896.22;6217948;22;20019;-81
2023/06/09 04:51:46;;;;;;;10.63;8.70;;;;;;;18.55;69.38;100896.13;6243192;22;20046;-80
2023/06/09 04:54:17;;;;;;;8.13;7.43;;;;;;;18.63;69.32;100901.09;6269311;22;20034;-88
2023/06/09 04:56:49;;;;;;;9.05;8.15;;;;;;;18.65;69.49;100896.59;6217207;22;20638;-81
2023/06/09 04:59:15;;;;;;;9.63;8.35;;;;;;;18.64;69.68;100901.06;6242532;22;20730;-84
2023/06/09 05:01:46;;;;;;;8.95;8.10;;;;;;;18.64;69.66;100908.13;6240621;22;20035;-80
2023/06/09 05:04:19;;;;;;;11.13;8.30;;;;;;;18.66;69.23;100904.50;6242295;22;20027;-84
2023/06/09 05:06:45;;;;;;;9.27;8.43;;;;;;;18.67;69.50;100905.38;6245615;22;20023;-81
2023/06/09 05:09:13;;;;;;;10.60;8.70;;;;;;;18.66;69.38;100908.94;6245991;22;20024;-91
2023/06/09 05:11:39;;;;;;;8.52;7.75;;;;;;;18.65;69.54;100910.72;6242515;22;20319;-79
2023/06/09 05:14:06;;;;;;;8.02;7.32;;;;;;;18.65;69.72;100908.06;6243865;22;20016;-85
2023/06/09 05:16:35;;;;;;;9.73;8.23;;;;;;;18.67;69.40;100914.19;6218880;22;20633;-79
2023/06/09 05:19:02;;;;;;;8.35;7.60;;;;;;;18.72;69.11;100921.09;6243111;22;20115;-80
2023/06/09 05:21:28;;;;;;;9.18;8.48;;;;;;;18.77;69.40;100913.81;6241747;22;20019;-84
2023/06/09 05:23:55;;;;;;;9.00;8.13;;;;;;;18.77;68.99;100921.78;6239495;22;20379;-83
2023/06/09 05:26:25;;;;;;;13.73;9.27;;;;;;;18.79;69.12;100917.28;6240731;22;20304;-81
2023/06/09 05:28:52;;;;;;;12.50;8.80;;;;;;;18.75;68.78;100916.53;6268324;22;20020;-79
2023/06/09 05:31:19;;;;;;;8.85;8.05;;;;;;;18.71;68.22;100917.59;6242507;22;20022;-89
2023/06/09 05:33:45;;;;;;;8.82;7.93;;;;;;;18.73;68.49;100923.69;6211711;22;20016;-80
2023/06/09 05:36:13;;;;;;;9.40;7.85;;;;;;;18.76;68.05;100925.34;6215905;22;20023;-80
2023/06/09 05:38:40;;;;;;;10.85;8.05;;;;;;;18.72;68.09;100929.03;6216683;22;20447;-89
2023/06/09 05:41:06;;;;;;;9.63;8.57;;;;;;;18.71;67.63;100929.97;6243916;22;20024;-81
2023/06/09 05:43:33;;;;;;;8.93;7.93;;;;;;;18.72;67.46;100931.69;6241740;22;20024;-79
2023/06/09 05:45:59;;;;;;;8.25;6.72;;;;;;;18.71;67.09;100937.91;6244802;22;20027;-77
2023/06/09 05:48:26;;;;;;;9.68;7.93;;;;;;;18.67;66.92;100938.03;6221943;22;20020;-79
2023/06/09 05:50:52;;;;;;;9.95;7.82;;;;;;;18.62;66.79;100940.00;6246856;22;20035;-84
2023/06/09 05:53:19;;;;;;;8.55;7.72;;;;;;;18.58;67.01;100941.06;6246875;22;20020;-78
2023/06/09 05:55:46;;;;;;;9.40;8.13;;;;;;;18.60;66.66;100939.19;6220911;22;20028;-82
2023/06/09 05:58:15;;;;;;;9.20;8.30;;;;;;;18.59;66.44;100941.91;6221875;22;20034;-78
2023/06/09 06:00:42;;;;;;;11.90;7.75;;;;;;;18.60;66.49;100947.16;6243522;22;20020;-78
2023/06/09 06:03:10;;;;;;;13.80;8.40;;;;;;;18.60;66.20;100954.25;6247559;22;20015;-79
2023/06/09 06:05:37;;;;;;;11.10;8.38;;;;;;;18.61;66.04;100950.69;6212704;22;20077;-81
2023/06/09 06:08:05;;;;;;;8.48;7.38;;;;;;;18.61;65.92;100948.88;6241714;22;20019;-82
2023/06/09 06:10:31;;;;;;;15.38;8.40;;;;;;;18.64;66.07;100947.91;6242547;22;20043;-83
2023/06/09 06:13:01;;;;;;;8.38;7.60;;;;;;;18.68;65.74;100954.81;6240982;22;20020;-84
2023/06/09 06:15:28;;;;;;;8.63;7.80;;;;;;;18.76;65.24;100941.25;6221706;22;20019;-80
2023/06/09 06:17:57;;;;;;;9.75;7.47;;;;;;;18.82;64.66;100952.50;6253362;22;20027;-84
2023/06/09 06:20:24;;;;;;;8.38;7.45;;;;;;;18.89;64.49;100952.25;6248677;22;20020;-79
2023/06/09 06:22:51;;;;;;;12.48;9.43;;;;;;;18.92;64.14;100949.53;6244909;22;20035;-84
2023/06/09 06:25:17;;;;;;;11.88;8.35;;;;;;;18.92;63.94;100958.34;6246229;22;20023;-78
2023/06/09 06:27:44;;;;;;;8.73;7.82;;;;;;;18.98;63.62;100950.16;6245692;22;20015;-80
2023/06/09 06:30:11;;;;;;;9.18;7.85;;;;;;;19.04;62.86;100957.00;6246505;22;20076;-78
2023/06/09 06:32:39;;;;;;;11.75;7.60;;;;;;;19.09;62.86;100954.19;6218636;22;20016;-78
2023/06/09 06:35:07;;;;;;;7.88;7.18;;;;;;;19.16;62.19;100956.53;6245447;22;20065;-80
2023/06/09 06:37:34;;;;;;;9.35;7.47;;;;;;;19.20;61.46;100959.91;6245397;22;20043;-78
2023/06/09 06:40:00;;;;;;;12.30;7.80;;;;;;;19.26;60.69;100953.50;6243835;22;20016;-79
2023/06/09 06:42:27;;;;;;;9.30;7.07;;;;;;;19.38;60.84;100952.13;6241620;22;20030;-81
2023/06/09 06:44:53;;;;;;;9.75;7.60;;;;;;;19.50;59.56;100959.56;6214839;22;20019;-81
2023/06/09 06:47:22;;;;;;;9.00;7.00;;;;;;;19.58;59.36;100953.94;6241935;22;20022;-85
2023/06/09 06:49:49;;;;;;;9.07;7.43;;;;;;;19.67;58.74;100957.09;6243778;22;20026;-79
2023/06/09 06:52:18;;;;;;;11.25;7.30;;;;;;;19.70;58.83;100966.72;6243763;22;20098;-83
2023/06/09 06:54:45;;;;;;;8.25;7.13;;;;;;;19.79;58.56;100962.78;6271219;22;20050;-84
2023/06/09 06:57:11;;;;;;;10.07;7.00;;;;;;;19.86;58.61;100966.13;6245977;22;20011;-78
2023/06/09 06:59:37;;;;;;;8.80;7.13;;;;;;;19.98;58.05;100963.75;6220392;22;20090;-82
2023/06/09 07:02:05;;;;;;;13.88;6.47;;;;;;;20.15;57.80;100957.75;6245859;22;20011;-78
2023/06/09 07:04:31;;;;;;;7.20;6.40;;;;;;;20.27;57.04;100958.09;6244986;22;20016;-79
2023/06/09 07:06:58;;;;;;;8.45;6.68;;;;;;;20.31;56.65;100963.22;6244059;22;20012;-84
2023/06/09 07:09:25;;;;;;;8.25;6.68;;;;;;;20.35;55.97;100963.06;6244353;22;20034;-80
2023/06/09 07:11:51;;;;;;;10.88;7.05;;;;;;;20.36;55.83;100963.00;6243466;22;20023;-82
2023/06/09 07:14:18;;;;;;;6.72;6.10;;;;;;;20.44;55.59;100962.66;6241124;22;20016;-79
2023/06/09 07:16:44;;;;;;;7.28;6.55;;;;;;;20.52;55.00;100957.88;6217085;22;20012;-86
2023/06/09 07:19:11;;;;;;;10.68;6.57;;;;;;;20.58;54.75;100962.88;6242768;22;20090;-78
2023/06/09 07:21:37;;;;;;;10.23;6.97;;;;;;;20.63;54.70;100966.19;6240603;22;20015;-80
2023/06/09 07:24:06;;;;;;;9.85;6.88;;;;;;;20.74;54.47;100959.56;6215233;22;20351;-79
2023/06/09 07:26:33;;;;;;;7.60;5.75;;;;;;;21.07;53.74;100962.41;6240680;22;20019;-82
2023/06/09 07:29:00;;;;;;;11.77;6.57;;;;;;;21.38;52.80;100966.25;6241489;22;20075;-85
2023/06/09 07:31:26;;;;;;;15.27;7.03;;;;;;;21.61;51.95;100965.13;6242296;22;20012;-86
2023/06/09 07:33:52;;;;;;;6.13;5.53;;;;;;;21.80;51.28;100965.06;6242790;22;20522;-84
2023/06/09 07:36:19;;;;;;;6.63;5.80;;;;;;;21.93;50.75;100970.63;6221144;22;20046;-78
2023/06/09 07:38:46;;;;;;;7.20;6.25;;;;;;;22.06;50.41;100972.63;6218556;22;20069;-87
2023/06/09 07:41:14;;;;;;;7.70;5.85;;;;;;;22.31;49.19;100974.91;6247696;22;20058;-85
2023/06/09 07:43:40;;;;;;;7.40;6.10;;;;;;;22.45;49.39;100971.53;6257125;22;20111;-81
2023/06/09 07:46:07;;;;;;;10.88;6.55;;;;;;;22.58;48.47;100967.25;6237045;22;20031;-89
2023/06/09 07:48:33;;;;;;;9.82;6.00;;;;;;;22.38;48.84;100970.97;6224730;22;20050;-83
2023/06/09 07:51:03;;;;;;;11.75;6.75;;;;;;;22.37;49.27;100977.28;6219069;22;20023;-84
2023/06/09 07:53:29;;;;;;;8.38;5.45;;;;;;;22.61;48.92;100980.41;6243154;22;20062;-80
2023/06/09 07:55:56;;;;;;;11.25;7.10;;;;;;;22.51;48.14;100973.84;6218565;22;20067;-80
2023/06/09 07:58:23;;;;;;;12.65;7.32;;;;;;;22.46;48.81;100973.22;6243098;22;20023;-82
2023/06/09 08:00:50;;;;;;;8.90;6.13;;;;;;;22.80;48.55;100974.94;6243378;22;20046;-84
2023/06/09 08:03:16;;;;;;;9.80;5.65;;;;;;;23.01;47.94;100976.47;6242878;22;20613;-83
2023/06/09 08:05:43;;;;;;;10.45;5.50;;;;;;;23.06;47.70;100979.75;6244723;22;20114;-82
2023/06/09 08:08:10;;;;;;;12.35;6.55;;;;;;;23.05;47.49;100975.34;6216764;22;20031;-87
2023/06/09 08:10:36;;;;;;;12.10;6.28;;;;;;;23.16;47.81;100975.66;6241935;22;20015;-82
2023/06/09 08:13:02;;;;;;;10.23;6.20;;;;;;;23.51;47.17;100977.25;6241384;22;20115;-81
2023/06/09 08:15:29;;;;;;;9.05;6.50;;;;;;;23.64;46.49;100980.91;6217670;22;20011;-85
2023/06/09 08:17:55;;;;;;;10.02;5.95;;;;;;;23.80;46.23;100975.53;6247135;22;20020;-80
2023/06/09 08:20:22;;;;;;;10.55;6.57;;;;;;;23.93;45.95;100973.00;6246954;22;20012;-91
2023/06/09 08:22:49;;;;;;;7.78;6.93;;;;;;;23.92;45.68;100981.97;6246128;22;20066;-83
2023/06/09 08:25:16;;;;;;;15.10;6.60;;;;;;;23.79;45.83;100979.13;6221227;22;20077;-79
2023/06/09 08:27:42;;;;;;;8.13;6.03;;;;;;;23.56;46.81;100989.38;6247165;22;20016;-84
2023/06/09 08:30:09;;;;;;;11.93;6.55;;;;;;;23.57;46.64;100979.53;6252205;22;20020;-81
2023/06/09 08:32:36;;;;;;;10.02;5.90;;;;;;;23.56;46.62;100984.03;6232732;22;20043;-78
2023/06/09 08:35:07;;;;;;;13.95;6.68;;;;;;;23.73;46.28;100980.38;6254250;22;20026;-80
2023/06/09 08:37:35;;;;;;;9.38;7.00;;;;;;;23.73;45.86;100972.34;6249114;22;20020;-80
2023/06/09 08:40:05;;;;;;;14.23;6.82;;;;;;;23.71;46.49;100979.59;6248280;22;20050;-80
2023/06/09 08:42:32;;;;;;;8.35;6.70;;;;;;;23.82;46.36;100975.41;6246757;22;20430;-85
2023/06/09 08:45:05;;;;;;;8.32;6.20;;;;;;;24.13;45.55;100971.78;6246272;22;20015;-82
2023/06/09 08:47:33;;;;;;;7.18;6.15;;;;;;;24.99;43.92;100975.41;6245890;22;20047;-82
2023/06/09 08:50:02;;;;;;;6.63;5.93;;;;;;;25.75;41.57;100984.75;6244971;22;20099;-86
2023/06/09 08:52:31;;;;;;;11.38;6.00;;;;;;;25.78;42.02;100981.00;6244669;22;20034;-82
2023/06/09 08:54:59;;;;;;;10.43;5.97;;;;;;;26.30;41.16;100985.44;6244782;22;20019;-80
2023/06/09 08:57:26;;;;;;;14.20;6.97;;;;;;;27.45;39.40;100974.56;6245628;22;20019;-80
2023/06/09 08:59:53;;;;;;;12.93;7.28;;;;;;;28.92;36.01;100973.97;6245158;22;20084;-83
2023/06/09 09:02:20;;;;;;;9.45;5.72;;;;;;;29.82;34.80;100970.09;6243783;22;20035;-85
2023/06/09 09:04:49;;;;;;;8.18;5.20;;;;;;;30.42;34.58;100969.44;6246124;22;20031;-81
2023/06/09 09:07:15;;;;;;;8.18;5.60;;;;;;;30.65;33.37;100972.81;6244705;22;20062;-81
2023/06/09 09:09:42;;;;;;;7.68;6.38;;;;;;;30.24;33.24;100975.47;6245002;22;20455;-81
2023/06/09 09:12:13;;;;;;;7.43;5.38;;;;;;;30.26;32.82;100980.72;6222286;23;20035;-83
2023/06/09 09:14:44;;;;;;;7.97;5.05;;;;;;;30.80;33.13;100974.16;6210436;23;20012;-81
2023/06/09 09:17:15;;;;;;;7.25;5.55;;;;;;;31.28;32.51;100972.56;6213819;23;20016;-82
2023/06/09 09:19:45;;;;;;;7.75;5.20;;;;;;;31.56;31.98;100969.97;6213819;23;20016;-81
2023/06/09 09:22:13;;;;;;;10.13;5.85;;;;;;;31.72;31.86;100968.56;6212476;23;20011;-81
2023/06/09 09:24:46;;;;;;;8.30;5.65;;;;;;;32.19;31.21;100967.78;6212904;23;20427;-83
2023/06/09 09:27:23;;;;;;;7.03;5.30;;;;;;;32.70;30.09;100962.84;6188434;23;20099;-82
2023/06/09 09:29:49;;;;;;;5.45;4.93;;;;;;;33.66;29.73;100975.91;6211473;23;20541;-81
2023/06/09 09:32:16;;;;;;;5.95;5.35;;;;;;;33.38;29.38;100962.44;6213287;23;20054;-86
2023/06/09 09:34:45;;;;;;;12.07;5.45;;;;;;;33.05;29.34;100961.25;6188409;23;20505;-85
2023/06/09 09:37:13;;;;;;;6.20;4.88;;;;;;;33.56;29.30;100958.84;6188529;23;20012;-81
2023/06/09 09:39:53;;;;;;;7.40;5.78;;;;;;;34.42;28.05;100949.13;6215436;23;20019;-81
2023/06/09 09:42:21;;;;;;;4.93;4.45;;;;;;;34.76;28.07;100959.09;6212800;23;20071;-91
2023/06/09 09:44:51;;;;;;;10.52;5.70;;;;;;;34.01;28.39;100962.44;6212061;23;20108;-82
2023/06/09 09:47:18;;;;;;;10.73;6.05;;;;;;;32.69;30.01;100967.44;6239778;23;20099;-81
2023/06/09 09:49:59;;;;;;;7.93;5.82;;;;;;;31.57;31.20;100957.31;6217017;23;20044;-85
2023/06/09 09:52:27;;;;;;;5.63;5.13;;;;;;;31.10;32.06;100964.28;6195094;23;20189;-85
2023/06/09 09:54:56;;;;;;;7.25;5.90;;;;;;;30.76;32.28;100959.19;6247990;23;20024;-91
2023/06/09 09:57:30;;;;;;;7.10;5.63;;;;;;;30.23;33.38;100962.09;6222110;23;20070;-85
2023/06/09 09:59:59;;;;;;;9.68;5.75;;;;;;;30.08;33.71;100962.47;6222403;23;20016;-90
2023/06/09 10:02:27;;;;;;;6.22;4.85;;;;;;;29.83;33.53;100969.09;6216561;23;20115;-88
2023/06/09 10:04:57;;;;;;;9.98;5.57;;;;;;;29.86;33.62;100961.56;6189972;23;20088;-91
2023/06/09 10:07:27;;;;;;;7.07;5.68;;;;;;;30.11;33.92;100962.19;6219794;23;20042;-84
2023/06/09 10:09:55;;;;;;;9.02;5.47;;;;;;;30.12;33.46;100958.50;6245317;23;20095;-82
2023/06/09 10:12:23;;;;;;;6.30;5.50;;;;;;;29.63;34.40;100962.69;6220101;23;20024;-84
2023/06/09 10:14:52;;;;;;;7.15;5.13;;;;;;;29.16;34.76;100968.38;6217433;23;20045;-81
2023/06/09 10:17:21;;;;;;;9.38;5.45;;;;;;;28.69;35.19;100963.19;6216241;23;20034;-80
2023/06/09 10:19:53;;;;;;;6.05;5.18;;;;;;;28.42;35.59;100968.94;6214990;23;20019;-79
2023/06/09 10:22:20;;;;;;;6.93;5.20;;;;;;;28.36;35.65;100965.75;6214632;23;20016;-81
2023/06/09 10:24:47;;;;;;;9.30;5.10;;;;;;;28.58;35.35;100965.88;6214530;23;20342;-80
2023/06/09 10:27:15;;;;;;;10.13;5.25;;;;;;;28.51;35.38;100960.13;6214903;23;20046;-81
2023/06/09 10:29:42;;;;;;;7.13;5.50;;;;;;;28.46;35.60;100965.88;6215873;23;20023;-80
2023/06/09 10:32:14;;;;;;;7.32;4.90;;;;;;;28.50;35.62;100967.34;6215406;23;20016;-87
2023/06/09 10:34:47;;;;;;;9.90;5.88;;;;;;;28.41;36.05;100965.41;6189497;23;20490;-83
2023/06/09 10:37:14;;;;;;;8.98;5.20;;;;;;;28.31;35.74;100964.41;6191707;23;20028;-81
2023/06/09 10:40:21;;;;;;;5.43;4.38;;;;;;;28.20;36.00;100966.13;6217708;23;20046;-81
2023/06/09 10:43:33;;;;;;;10.77;5.38;;;;;;;28.54;35.63;100962.59;6193024;23;20020;-80
2023/06/09 10:46:00;;;;;;;6.80;4.82;;;;;;;28.60;34.95;100959.38;6211879;23;20019;-81
2023/06/09 10:48:49;;;;;;;6.65;5.68;;;;;;;28.52;35.10;100953.75;6228006;23;20463;-80
2023/06/09 10:51:41;;;;;;;7.90;6.00;;;;;;;28.64;35.27;100951.91;6220075;23;20012;-92
2023/06/09 10:54:12;;;;;;;6.35;4.93;;;;;;;29.09;34.58;100951.00;6193399;23;20016;-84
2023/06/09 10:56:45;;;;;;;5.85;5.25;;;;;;;30.13;33.44;100949.41;6245262;23;20023;-80
2023/06/09 10:59:24;;;;;;;6.10;5.50;;;;;;;31.98;30.48;100945.31;6214444;23;20020;-80
2023/06/09 11:02:06;;;;;;;8.40;5.15;;;;;;;31.89;30.32;100951.59;6242028;23;20662;-79
2023/06/09 11:04:38;;;;;;;8.18;4.82;;;;;;;30.53;31.94;100953.16;6242167;23;20443;-82
2023/06/09 11:07:14;;;;;;;6.90;5.00;;;;;;;29.66;33.45;100948.94;6241384;23;20016;-80
2023/06/09 11:10:01;;;;;;;8.60;5.43;;;;;;;28.85;34.58;100952.91;6215209;23;20114;-80
2023/06/09 11:12:30;;;;;;;5.30;4.90;;;;;;;28.51;35.06;100949.34;6241539;22;20023;-83
2023/06/09 11:14:58;;;;;;;7.38;5.07;;;;;;;28.46;35.87;100952.44;6245044;22;20015;-79
2023/06/09 11:17:36;;;;;;;6.15;4.60;;;;;;;28.33;35.38;100951.66;6246770;22;20296;-81
2023/06/09 11:20:05;;;;;;;5.80;5.07;;;;;;;28.02;35.63;100946.03;6273535;22;20054;-82
2023/06/09 11:22:33;;;;;;;6.97;4.55;;;;;;;27.94;35.88;100951.13;6272233;22;20086;-79
2023/06/09 11:25:00;;;;;;;6.68;4.75;;;;;;;28.14;35.41;100945.06;6246116;22;20024;-81
2023/06/09 11:27:26;;;;;;;4.97;4.47;;;;;;;28.03;35.49;100943.22;6245107;22;20098;-82
2023/06/09 11:30:11;;;;;;;4.80;4.40;;;;;;;28.39;34.83;100938.59;6245816;22;20029;-79
2023/06/09 11:32:56;;;;;;;5.05;4.72;;;;;;;28.70;34.93;100933.44;6269285;22;20015;-79